createdAt,value
2022-08-29T00:00:02.251Z,12
2022-08-29T00:01:01.831Z,12
2022-08-29T00:02:01.566Z,12
2022-08-29T00:03:02.074Z,12.1
2022-08-29T00:04:01.676Z,12.2
2022-08-29T00:05:02.291Z,12.2
2022-08-29T00:06:02.102Z,12.3
2022-08-29T00:07:01.508Z,12.3
2022-08-29T00:08:02.083Z,12.2
2022-08-29T00:09:01.658Z,12.1
2022-08-29T00:10:02.250Z,12
2022-08-29T00:11:01.852Z,12
2022-08-29T00:12:01.427Z,12
2022-08-29T00:13:02.000Z,11.9
2022-08-29T00:14:01.578Z,11.9
2022-08-29T00:15:02.151Z,11.7
2022-08-29T00:16:01.752Z,11.7
2022-08-29T00:17:01.431Z,11.7
2022-08-29T00:18:01.897Z,11.7
2022-08-29T00:19:01.548Z,11.8
2022-08-29T00:20:02.121Z,11.8
2022-08-29T00:21:01.714Z,11.9
2022-08-29T00:22:02.281Z,11.8
2022-08-29T00:23:01.857Z,11.8
2022-08-29T00:24:01.437Z,11.7
2022-08-29T00:25:02.013Z,11.7
2022-08-29T00:26:01.647Z,11.7
2022-08-29T00:27:02.171Z,11.8
2022-08-29T00:28:01.746Z,11.8
2022-08-29T00:29:01.320Z,11.8
2022-08-29T00:30:01.894Z,11.9
2022-08-29T00:31:01.489Z,12
2022-08-29T00:32:02.134Z,12
2022-08-29T00:33:01.706Z,12.1
2022-08-29T00:34:02.279Z,12
2022-08-29T00:35:01.853Z,12
2022-08-29T00:36:01.445Z,12
2022-08-29T00:37:02.004Z,11.9
2022-08-29T00:38:02.130Z,12
2022-08-29T00:39:02.246Z,11.9
2022-08-29T00:40:01.876Z,11.9
2022-08-29T00:41:01.372Z,11.8
2022-08-29T00:42:01.964Z,11.8
2022-08-29T00:43:01.540Z,11.8
2022-08-29T00:44:02.118Z,11.8
2022-08-29T00:45:01.691Z,11.8
2022-08-29T00:46:02.339Z,11.8
2022-08-29T00:47:01.948Z,11.8
2022-08-29T00:48:01.501Z,11.8
2022-08-29T00:49:02.054Z,11.8
2022-08-29T00:50:01.627Z,11.9
2022-08-29T00:51:02.204Z,11.9
2022-08-29T00:52:01.774Z,11.9
2022-08-29T00:53:01.373Z,11.9
2022-08-29T00:54:01.938Z,11.9
2022-08-29T00:55:01.513Z,11.9
2022-08-29T00:56:02.081Z,11.8
2022-08-29T00:57:01.654Z,11.8
2022-08-29T00:58:02.246Z,11.8
2022-08-29T00:59:01.822Z,11.7
2022-08-29T01:00:01.401Z,11.6
2022-08-29T01:01:02.029Z,11.5
2022-08-29T01:02:01.709Z,11.5
2022-08-29T01:03:02.238Z,11.5
2022-08-29T01:04:01.811Z,11.4
2022-08-29T01:05:01.454Z,11.3
2022-08-29T01:06:02.028Z,11.3
2022-08-29T01:07:01.602Z,11.2
2022-08-29T01:08:02.196Z,11.3
2022-08-29T01:09:01.793Z,11.3
2022-08-29T01:10:01.351Z,11.4
2022-08-29T01:11:01.903Z,11.4
2022-08-29T01:12:01.476Z,11.4
2022-08-29T01:13:02.067Z,11.4
2022-08-29T01:14:01.640Z,11.4
2022-08-29T01:15:02.220Z,11.4
2022-08-29T01:16:01.829Z,11.4
2022-08-29T01:17:01.450Z,11.4
2022-08-29T01:18:01.964Z,11.3
2022-08-29T01:19:01.556Z,11.4
2022-08-29T01:20:02.108Z,11.5
2022-08-29T01:21:01.700Z,11.4
2022-08-29T01:22:02.272Z,11.3
2022-08-29T01:23:01.847Z,11.3
2022-08-29T01:24:01.459Z,11.3
2022-08-29T01:25:02.009Z,11.3
2022-08-29T01:26:01.600Z,11.3
2022-08-29T01:27:02.168Z,11.3
2022-08-29T01:28:01.742Z,11.3
2022-08-29T01:29:01.333Z,11.2
2022-08-29T01:30:01.897Z,11.1
2022-08-29T01:31:01.558Z,11.1
2022-08-29T01:32:02.176Z,11
2022-08-29T01:33:01.764Z,11
2022-08-29T01:34:01.386Z,10.9
2022-08-29T01:35:01.921Z,10.9
2022-08-29T01:36:01.494Z,10.8
2022-08-29T01:37:02.066Z,10.9
2022-08-29T01:38:01.640Z,10.9
2022-08-29T01:39:02.229Z,10.8
2022-08-29T01:40:01.884Z,10.8
2022-08-29T01:41:01.340Z,10.8
2022-08-29T01:42:01.931Z,10.8
2022-08-29T01:43:01.504Z,10.8
2022-08-29T01:44:02.079Z,10.6
2022-08-29T01:45:02.830Z,10.5
2022-08-29T01:46:01.613Z,10.5
2022-08-29T01:47:03.247Z,10.6
2022-08-29T01:48:03.608Z,10.6
2022-08-29T01:49:02.269Z,10.8
2022-08-29T01:50:01.750Z,10.8
2022-08-29T01:51:01.314Z,10.8
2022-08-29T01:52:02.090Z,10.8
2022-08-29T01:53:01.538Z,10.8
2022-08-29T01:54:02.115Z,10.8
2022-08-29T01:55:01.710Z,10.8
2022-08-29T01:56:02.269Z,10.8
2022-08-29T01:57:01.845Z,10.8
2022-08-29T01:58:01.419Z,10.7
2022-08-29T01:59:01.993Z,10.8
2022-08-29T02:00:01.665Z,10.8
2022-08-29T02:01:02.323Z,10.8
2022-08-29T02:02:01.957Z,10.8
2022-08-29T02:03:01.478Z,10.8
2022-08-29T02:04:02.039Z,10.8
2022-08-29T02:05:01.616Z,10.8
2022-08-29T02:06:02.192Z,10.7
2022-08-29T02:07:01.784Z,10.7
2022-08-29T02:08:01.358Z,10.8
2022-08-29T02:09:01.929Z,10.7
2022-08-29T02:10:01.520Z,10.6
2022-08-29T02:11:02.099Z,10.6
2022-08-29T02:12:01.689Z,10.6
2022-08-29T02:13:02.258Z,10.4
2022-08-29T02:14:01.831Z,10.5
2022-08-29T02:15:01.406Z,10.5
2022-08-29T02:16:02.017Z,10.5
2022-08-29T02:17:01.622Z,10.5
2022-08-29T02:18:01.739Z,10.4
2022-08-29T02:19:01.313Z,10.5
2022-08-29T02:20:00.889Z,10.5
2022-08-29T02:21:01.483Z,10.6
2022-08-29T02:22:01.606Z,10.7
2022-08-29T02:23:01.182Z,10.8
2022-08-29T02:24:11.423Z,10.8
2022-08-29T02:25:01.291Z,10.8
2022-08-29T02:26:00.866Z,10.7
2022-08-29T02:27:01.455Z,10.8
2022-08-29T02:28:01.034Z,10.7
2022-08-29T02:29:01.608Z,10.6
2022-08-29T02:30:01.184Z,10.6
2022-08-29T02:31:00.833Z,10.5
2022-08-29T02:32:01.344Z,10.6
2022-08-29T02:33:00.917Z,10.6
2022-08-29T02:34:01.455Z,10.6
2022-08-29T02:35:01.028Z,10.6
2022-08-29T02:36:01.600Z,10.5
2022-08-29T02:37:01.273Z,10.5
2022-08-29T02:38:00.872Z,10.5
2022-08-29T02:39:01.323Z,10.4
2022-08-29T02:40:00.947Z,10.4
2022-08-29T02:41:01.473Z,10.4
2022-08-29T02:42:01.046Z,10.4
2022-08-29T02:43:01.642Z,10.3
2022-08-29T02:44:01.222Z,10.3
2022-08-29T02:45:00.807Z,10.3
2022-08-29T02:46:01.380Z,10.2
2022-08-29T02:47:01.025Z,10.2
2022-08-29T02:48:01.581Z,10.1
2022-08-29T02:49:01.614Z,10.2
2022-08-29T02:50:01.259Z,10.2
2022-08-29T02:51:00.843Z,10.2
2022-08-29T02:52:01.418Z,10.3
2022-08-29T02:53:01.599Z,10.3
2022-08-29T02:54:01.171Z,10.3
2022-08-29T02:55:01.746Z,10.3
2022-08-29T02:56:01.322Z,10.3
2022-08-29T02:57:00.903Z,10.3
2022-08-29T02:58:01.488Z,10.3
2022-08-29T02:59:01.083Z,10.3
2022-08-29T03:00:01.645Z,10.3
2022-08-29T03:01:01.259Z,10.4
2022-08-29T03:02:00.841Z,10.4
2022-08-29T03:03:01.389Z,10.4
2022-08-29T03:04:00.981Z,10.4
2022-08-29T03:05:01.558Z,10.4
2022-08-29T03:06:01.159Z,10.4
2022-08-29T03:07:01.728Z,10.4
2022-08-29T03:08:01.304Z,10.4
2022-08-29T03:09:00.894Z,10.4
2022-08-29T03:10:01.473Z,10.5
2022-08-29T03:11:01.045Z,10.5
2022-08-29T03:12:01.619Z,10.6
2022-08-29T03:13:01.193Z,10.5
2022-08-29T03:14:00.768Z,10.5
2022-08-29T03:15:01.360Z,10.4
2022-08-29T03:16:01.011Z,10.3
2022-08-29T03:17:01.522Z,10.3
2022-08-29T03:18:01.101Z,10.3
2022-08-29T03:19:01.727Z,10.4
2022-08-29T03:20:01.318Z,10.3
2022-08-29T03:21:00.907Z,10.2
2022-08-29T03:22:01.475Z,10.3
2022-08-29T03:23:01.055Z,10.3
2022-08-29T03:24:01.628Z,10.3
2022-08-29T03:25:01.203Z,10.3
2022-08-29T03:26:00.793Z,10.2
2022-08-29T03:27:01.351Z,10.1
2022-08-29T03:28:00.923Z,10.1
2022-08-29T03:29:01.498Z,10.2
2022-08-29T03:30:01.071Z,10.1
2022-08-29T03:31:01.789Z,10.2
2022-08-29T03:32:01.293Z,10.1
2022-08-29T03:33:00.864Z,10.1
2022-08-29T03:34:01.457Z,10.1
2022-08-29T03:35:01.049Z,10.2
2022-08-29T03:36:01.605Z,10.2
2022-08-29T03:37:01.471Z,10.2
2022-08-29T03:38:00.849Z,10.2
2022-08-29T03:39:01.441Z,10.2
2022-08-29T03:40:01.091Z,10.2
2022-08-29T03:41:01.599Z,10.2
2022-08-29T03:42:01.178Z,10.3
2022-08-29T03:43:01.754Z,10.3
2022-08-29T03:44:01.330Z,10.3
2022-08-29T03:45:00.923Z,10.3
2022-08-29T03:46:01.493Z,10.3
2022-08-29T03:47:01.095Z,10.3
2022-08-29T03:48:01.668Z,10.2
2022-08-29T03:49:01.261Z,10.1
2022-08-29T03:50:00.861Z,10.1
2022-08-29T03:51:01.423Z,10.1
2022-08-29T03:52:00.998Z,10.1
2022-08-29T03:53:01.775Z,10.1
2022-08-29T03:54:01.236Z,10.1
2022-08-29T03:55:00.840Z,10.2
2022-08-29T03:56:01.405Z,10.2
2022-08-29T03:57:00.992Z,10.1
2022-08-29T03:58:01.567Z,10.1
2022-08-29T03:59:01.146Z,10.2
2022-08-29T04:00:01.747Z,10.2
2022-08-29T04:01:01.320Z,10.3
2022-08-29T04:02:01.007Z,10.2
2022-08-29T04:03:01.531Z,10.2
2022-08-29T04:04:01.128Z,10.2
2022-08-29T04:05:04.669Z,10.2
2022-08-29T04:06:01.262Z,10.3
2022-08-29T04:07:00.834Z,10.2
2022-08-29T04:08:01.408Z,10.3
2022-08-29T04:09:00.981Z,10.3
2022-08-29T04:10:01.577Z,10.3
2022-08-29T04:11:01.151Z,10.3
2022-08-29T04:12:01.744Z,10.2
2022-08-29T04:13:01.323Z,10.1
2022-08-29T04:14:00.896Z,10.1
2022-08-29T04:15:01.518Z,10.2
2022-08-29T04:16:01.166Z,10.3
2022-08-29T04:17:01.685Z,10.2
2022-08-29T04:18:01.259Z,10.2
2022-08-29T04:19:00.884Z,10.2
2022-08-29T04:20:01.431Z,10.3
2022-08-29T04:21:01.020Z,10.3
2022-08-29T04:22:01.587Z,10.3
2022-08-29T04:23:01.161Z,10.3
2022-08-29T04:24:01.734Z,10.3
2022-08-29T04:25:01.326Z,10.3
2022-08-29T04:26:19.068Z,10.4
2022-08-29T04:27:01.457Z,10.3
2022-08-29T04:28:01.032Z,10.4
2022-08-29T04:29:01.604Z,10.4
2022-08-29T04:30:01.180Z,10.3
2022-08-29T04:31:01.864Z,10.3
2022-08-29T04:32:01.473Z,10.4
2022-08-29T04:33:00.997Z,10.4
2022-08-29T04:34:01.572Z,10.4
2022-08-29T04:35:01.146Z,10.4
2022-08-29T04:36:01.748Z,10.4
2022-08-29T04:37:01.325Z,10.4
2022-08-29T04:38:00.900Z,10.3
2022-08-29T04:39:01.477Z,10.3
2022-08-29T04:40:01.072Z,10.4
2022-08-29T04:41:01.656Z,10.4
2022-08-29T04:42:01.230Z,10.4
2022-08-29T04:43:00.804Z,10.3
2022-08-29T04:44:01.381Z,10.3
2022-08-29T04:45:00.957Z,10.3
2022-08-29T04:46:01.578Z,10.4
2022-08-29T04:47:01.177Z,10.4
2022-08-29T04:48:08.611Z,10.4
2022-08-29T04:49:04.144Z,10.5
2022-08-29T04:50:00.836Z,10.5
2022-08-29T04:51:01.409Z,10.6
2022-08-29T04:52:00.985Z,10.6
2022-08-29T04:53:01.579Z,10.7
2022-08-29T04:54:01.151Z,10.6
2022-08-29T04:55:01.725Z,10.6
2022-08-29T04:56:01.298Z,10.7
2022-08-29T04:57:00.899Z,10.7
2022-08-29T04:58:01.620Z,10.7
2022-08-29T04:59:01.005Z,10.5
2022-08-29T05:00:01.579Z,10.5
2022-08-29T05:01:01.759Z,10.5
2022-08-29T05:02:01.387Z,10.6
2022-08-29T05:03:01.035Z,10.7
2022-08-29T05:04:01.634Z,10.7
2022-08-29T05:05:01.216Z,10.8
2022-08-29T05:06:00.793Z,11
2022-08-29T05:07:01.367Z,11
2022-08-29T05:08:00.963Z,11.1
2022-08-29T05:09:01.525Z,11.1
2022-08-29T05:10:01.099Z,11.1
2022-08-29T05:11:01.673Z,11.1
2022-08-29T05:12:01.245Z,11
2022-08-29T05:13:00.836Z,11
2022-08-29T05:14:01.403Z,11
2022-08-29T05:15:00.978Z,11
2022-08-29T05:16:01.583Z,11.1
2022-08-29T05:17:01.210Z,11.2
2022-08-29T05:18:00.805Z,11.2
2022-08-29T05:19:01.369Z,11.3
2022-08-29T05:20:00.995Z,11.4
2022-08-29T05:21:01.525Z,11.4
2022-08-29T05:22:01.097Z,11.6
2022-08-29T05:23:01.700Z,11.6
2022-08-29T05:24:01.295Z,11.6
2022-08-29T05:25:00.860Z,11.6
2022-08-29T05:26:01.433Z,11.8
2022-08-29T05:27:01.003Z,11.7
2022-08-29T05:28:01.576Z,11.7
2022-08-29T05:29:01.168Z,11.8
2022-08-29T05:30:01.730Z,11.8
2022-08-29T05:31:01.337Z,11.8
2022-08-29T05:32:00.952Z,11.9
2022-08-29T05:33:01.529Z,12
2022-08-29T05:34:01.127Z,12
2022-08-29T05:35:01.683Z,11.9
2022-08-29T05:36:01.257Z,11.9
2022-08-29T05:37:00.832Z,12.1
2022-08-29T05:38:03.728Z,12
2022-08-29T05:39:00.960Z,12.1
2022-08-29T05:40:01.559Z,12.1
2022-08-29T05:41:01.184Z,12.1
2022-08-29T05:42:01.747Z,12.2
2022-08-29T05:43:01.324Z,12.2
2022-08-29T05:44:00.920Z,12.2
2022-08-29T05:45:01.484Z,12.2
2022-08-29T05:46:01.117Z,12.1
2022-08-29T05:47:01.643Z,12.1
2022-08-29T05:48:01.220Z,12.1
2022-08-29T05:49:00.814Z,12.2
2022-08-29T05:50:01.397Z,12.3
2022-08-29T05:51:00.985Z,12.3
2022-08-29T05:52:01.591Z,12.6
2022-08-29T05:53:01.163Z,12.7
2022-08-29T05:54:01.736Z,12.7
2022-08-29T05:55:01.327Z,12.8
2022-08-29T05:56:00.898Z,12.8
2022-08-29T05:57:01.469Z,12.8
2022-08-29T05:58:01.041Z,12.9
2022-08-29T05:59:01.613Z,13
2022-08-29T06:00:01.208Z,13.1
2022-08-29T06:01:01.772Z,13.2
2022-08-29T06:02:01.506Z,13.3
2022-08-29T06:03:01.157Z,13.3
2022-08-29T06:04:01.727Z,13.4
2022-08-29T06:05:01.279Z,13.3
2022-08-29T06:06:00.847Z,13.4
2022-08-29T06:07:01.437Z,13.5
2022-08-29T06:08:01.010Z,13.5
2022-08-29T06:09:01.597Z,13.6
2022-08-29T06:10:03.584Z,13.6
2022-08-29T06:11:01.733Z,13.6
2022-08-29T06:12:01.308Z,13.7
2022-08-29T06:13:00.882Z,13.6
2022-08-29T06:14:01.454Z,13.6
2022-08-29T06:15:01.030Z,13.6
2022-08-29T06:16:01.652Z,13.6
2022-08-29T06:17:01.250Z,13.7
2022-08-29T06:18:00.822Z,13.7
2022-08-29T06:19:01.395Z,13.8
2022-08-29T06:20:00.978Z,13.8
2022-08-29T06:21:01.608Z,13.9
2022-08-29T06:22:01.182Z,13.9
2022-08-29T06:23:01.755Z,13.9
2022-08-29T06:24:01.330Z,14
2022-08-29T06:25:06.213Z,14
2022-08-29T06:26:01.461Z,14
2022-08-29T06:27:01.038Z,14.1
2022-08-29T06:28:01.363Z,14.3
2022-08-29T06:29:00.936Z,14.4
2022-08-29T06:30:02.100Z,14.5
2022-08-29T06:31:01.780Z,14.6
2022-08-29T06:32:01.401Z,14.6
2022-08-29T06:33:00.976Z,14.7
2022-08-29T06:34:01.572Z,14.8
2022-08-29T06:35:01.151Z,14.8
2022-08-29T06:36:01.743Z,15
2022-08-29T06:37:01.317Z,14.9
2022-08-29T06:38:00.913Z,14.8
2022-08-29T06:39:01.484Z,14.9
2022-08-29T06:40:01.096Z,14.9
2022-08-29T06:41:01.741Z,14.9
2022-08-29T06:42:01.338Z,15
2022-08-29T06:43:00.875Z,15.1
2022-08-29T06:44:01.449Z,15.1
2022-08-29T06:45:01.023Z,15.3
2022-08-29T06:46:01.687Z,15.2
2022-08-29T06:47:01.267Z,15.3
2022-08-29T06:48:00.841Z,15.5
2022-08-29T06:49:01.419Z,15.6
2022-08-29T06:50:00.995Z,15.5
2022-08-29T06:51:01.572Z,15.4
2022-08-29T06:52:01.164Z,15.3
2022-08-29T06:53:14.674Z,15.5
2022-08-29T06:54:01.292Z,15.7
2022-08-29T06:55:01.736Z,15.7
2022-08-29T06:56:01.311Z,15.7
2022-08-29T06:57:01.213Z,15.7
2022-08-29T06:58:01.804Z,15.7
2022-08-29T06:59:01.380Z,15.8
2022-08-29T07:00:00.954Z,15.8
2022-08-29T07:01:01.560Z,15.8
2022-08-29T07:02:01.238Z,15.9
2022-08-29T07:03:01.818Z,15.9
2022-08-29T07:04:01.424Z,15.9
2022-08-29T07:05:00.993Z,15.9
2022-08-29T07:06:01.569Z,15.9
2022-08-29T07:07:01.142Z,16
2022-08-29T07:08:01.744Z,16.1
2022-08-29T07:09:01.318Z,16.2
2022-08-29T07:10:00.891Z,16.2
2022-08-29T07:11:01.464Z,16.3
2022-08-29T07:12:01.036Z,16.3
2022-08-29T07:13:01.627Z,16.1
2022-08-29T07:14:01.201Z,16
2022-08-29T07:15:01.789Z,16
2022-08-29T07:16:01.433Z,16.1
2022-08-29T07:17:01.015Z,16.1
2022-08-29T07:18:01.588Z,16
2022-08-29T07:19:01.161Z,16
2022-08-29T07:20:01.754Z,16
2022-08-29T07:21:01.334Z,16
2022-08-29T07:22:00.951Z,16
2022-08-29T07:23:01.494Z,16
2022-08-29T07:24:01.065Z,16.3
2022-08-29T07:25:01.658Z,16.3
2022-08-29T07:26:01.230Z,16.4
2022-08-29T07:27:01.803Z,16.5
2022-08-29T07:28:01.377Z,16.4
2022-08-29T07:29:00.954Z,16.3
2022-08-29T07:30:01.506Z,16.4
2022-08-29T07:31:01.136Z,16.5
2022-08-29T07:32:01.679Z,16.5
2022-08-29T07:33:01.251Z,16.6
2022-08-29T07:34:02.469Z,16.6
2022-08-29T07:35:01.393Z,16.7
2022-08-29T07:36:01.181Z,16.6
2022-08-29T07:37:01.554Z,16.7
2022-08-29T07:38:01.186Z,16.6
2022-08-29T07:39:01.713Z,16.8
2022-08-29T07:40:01.364Z,16.8
2022-08-29T07:41:00.876Z,17
2022-08-29T07:42:01.457Z,16.9
2022-08-29T07:43:01.032Z,17
2022-08-29T07:44:01.605Z,17.1
2022-08-29T07:45:01.195Z,17.2
2022-08-29T07:46:01.834Z,17.1
2022-08-29T07:47:01.433Z,17.1
2022-08-29T07:48:01.010Z,17.1
2022-08-29T07:49:01.584Z,17.3
2022-08-29T07:50:01.175Z,17.3
2022-08-29T07:51:01.744Z,17.2
2022-08-29T07:52:01.319Z,17
2022-08-29T07:53:00.891Z,17
2022-08-29T07:54:01.483Z,17
2022-08-29T07:55:01.023Z,17.2
2022-08-29T07:56:01.612Z,17.3
2022-08-29T07:57:01.187Z,17.3
2022-08-29T07:58:01.760Z,17.3
2022-08-29T07:59:01.331Z,17.4
2022-08-29T08:00:00.902Z,17.5
2022-08-29T08:01:01.536Z,17.6
2022-08-29T08:02:01.236Z,17.7
2022-08-29T08:03:01.770Z,17.6
2022-08-29T08:04:01.376Z,17.7
2022-08-29T08:05:00.944Z,17.8
2022-08-29T08:06:03.957Z,17.8
2022-08-29T08:07:01.082Z,17.8
2022-08-29T08:08:05.213Z,17.8
2022-08-29T08:09:00.984Z,17.8
2022-08-29T08:10:01.557Z,17.8
2022-08-29T08:11:01.154Z,17.7
2022-08-29T08:12:05.000Z,17.5
2022-08-29T08:13:01.261Z,17.8
2022-08-29T08:14:00.832Z,17.8
2022-08-29T08:15:01.402Z,17.9
2022-08-29T08:16:00.987Z,17.8
2022-08-29T08:17:01.592Z,17.9
2022-08-29T08:18:01.193Z,18
2022-08-29T08:19:01.765Z,18.1
2022-08-29T08:20:01.337Z,18.1
2022-08-29T08:21:00.909Z,18.2
2022-08-29T08:22:01.536Z,18.3
2022-08-29T08:23:01.112Z,18.6
2022-08-29T08:24:01.686Z,18.8
2022-08-29T08:25:01.260Z,18.6
2022-08-29T08:26:01.839Z,18.6
2022-08-29T08:27:01.425Z,18.6
2022-08-29T08:28:00.999Z,18.9
2022-08-29T08:29:01.571Z,18.9
2022-08-29T08:30:01.150Z,19
2022-08-29T08:31:05.791Z,18.8
2022-08-29T08:32:01.274Z,18.6
2022-08-29T08:33:00.847Z,18.5
2022-08-29T08:34:01.418Z,18.5
2022-08-29T08:35:00.991Z,18.8
2022-08-29T08:36:01.566Z,19
2022-08-29T08:37:01.154Z,19
2022-08-29T08:38:01.739Z,18.9
2022-08-29T08:39:01.331Z,18.7
2022-08-29T08:40:00.927Z,18.8
2022-08-29T08:41:01.478Z,19
2022-08-29T08:42:01.051Z,19.1
2022-08-29T08:43:01.590Z,19.3
2022-08-29T08:44:01.183Z,19.4
2022-08-29T08:45:01.750Z,19.8
2022-08-29T08:46:01.367Z,19.6
2022-08-29T08:47:00.914Z,19.7
2022-08-29T08:48:01.486Z,19.5
2022-08-29T08:49:01.078Z,19.6
2022-08-29T08:50:01.649Z,19.3
2022-08-29T08:51:01.231Z,19.3
2022-08-29T08:52:01.807Z,19
2022-08-29T08:53:01.380Z,18.8
2022-08-29T08:54:00.972Z,18.8
2022-08-29T08:55:01.558Z,18.6
2022-08-29T08:56:01.135Z,18.7
2022-08-29T08:57:02.265Z,18.7
2022-08-29T08:58:00.894Z,18.8
2022-08-29T08:59:01.485Z,18.9
2022-08-29T09:00:01.059Z,19
2022-08-29T09:01:01.694Z,19.1
2022-08-29T09:02:06.420Z,19.6
2022-08-29T09:03:01.827Z,19.3
2022-08-29T09:04:01.418Z,19.1
2022-08-29T09:05:01.005Z,19.4
2022-08-29T09:06:01.608Z,19.5
2022-08-29T09:07:01.181Z,19.6
2022-08-29T09:08:01.755Z,19.5
2022-08-29T09:09:01.346Z,19.4
2022-08-29T09:10:00.917Z,19.4
2022-08-29T09:11:01.491Z,19.4
2022-08-29T09:12:01.068Z,19.3
2022-08-29T09:13:01.652Z,19.6
2022-08-29T09:14:01.253Z,19.8
2022-08-29T09:15:01.820Z,19.6
2022-08-29T09:16:01.390Z,19.7
2022-08-29T09:17:00.978Z,19.7
2022-08-29T09:18:01.551Z,19.8
2022-08-29T09:19:01.126Z,19.7
2022-08-29T09:20:01.715Z,19.5
2022-08-29T09:21:04.011Z,19.6
2022-08-29T09:22:00.886Z,19.7
2022-08-29T09:23:01.485Z,19.9
2022-08-29T09:24:01.073Z,19.7
2022-08-29T09:25:01.662Z,20
2022-08-29T09:26:01.235Z,20
2022-08-29T09:27:01.773Z,20.1
2022-08-29T09:28:01.349Z,20.3
2022-08-29T09:29:00.973Z,20.8
2022-08-29T09:30:01.563Z,21.1
2022-08-29T09:31:01.138Z,20.8
2022-08-29T09:32:01.770Z,20.3
2022-08-29T09:33:00.985Z,20
2022-08-29T09:34:01.577Z,19.5
2022-08-29T09:35:09.423Z,19.2
2022-08-29T09:36:01.685Z,18.9
2022-08-29T09:37:01.258Z,19.1
2022-08-29T09:38:01.832Z,19.4
2022-08-29T09:39:01.422Z,19.3
2022-08-29T09:40:01.012Z,19.1
2022-08-29T09:41:01.638Z,19.2
2022-08-29T09:42:01.239Z,19.2
2022-08-29T09:43:01.810Z,19.2
2022-08-29T09:44:01.401Z,19.4
2022-08-29T09:45:00.974Z,19.5
2022-08-29T09:46:01.563Z,19.7
2022-08-29T09:47:01.207Z,19.8
2022-08-29T09:48:01.763Z,19.8
2022-08-29T09:49:01.336Z,19.7
2022-08-29T09:50:00.915Z,19.7
2022-08-29T09:51:01.488Z,19.5
2022-08-29T09:52:01.078Z,19.6
2022-08-29T09:53:01.649Z,19.8
2022-08-29T09:54:01.224Z,19.7
2022-08-29T09:55:01.798Z,19.9
2022-08-29T09:56:01.391Z,19.8
2022-08-29T09:57:00.968Z,20.2
2022-08-29T09:58:01.544Z,20.1
2022-08-29T09:59:01.117Z,20.1
2022-08-29T10:00:01.693Z,19.9
2022-08-29T10:01:01.447Z,19.8
2022-08-29T10:02:01.676Z,19.6
2022-08-29T10:03:01.600Z,19.3
2022-08-29T10:04:01.323Z,19.5
2022-08-29T10:05:01.762Z,19.5
2022-08-29T10:06:01.337Z,19.4
2022-08-29T10:07:00.926Z,19.4
2022-08-29T10:08:01.500Z,19.3
2022-08-29T10:09:01.074Z,19.5
2022-08-29T10:10:01.658Z,19.4
2022-08-29T10:11:01.243Z,19.2
2022-08-29T10:12:01.829Z,19.1
2022-08-29T10:13:01.403Z,19.3
2022-08-29T10:14:00.978Z,19.6
2022-08-29T10:15:01.555Z,19.8
2022-08-29T10:16:01.130Z,20.1
2022-08-29T10:17:01.779Z,19.8
2022-08-29T10:18:01.363Z,20
2022-08-29T10:19:00.935Z,20.1
2022-08-29T10:20:01.508Z,20.1
2022-08-29T10:21:01.081Z,20.3
2022-08-29T10:22:01.672Z,20
2022-08-29T10:23:01.248Z,20.1
2022-08-29T10:24:00.867Z,20.1
2022-08-29T10:25:01.411Z,20
2022-08-29T10:26:00.985Z,19.6
2022-08-29T10:27:01.574Z,19.7
2022-08-29T10:28:01.161Z,20
2022-08-29T10:29:01.732Z,19.8
2022-08-29T10:30:01.699Z,20
2022-08-29T10:31:00.889Z,20.2
2022-08-29T10:32:01.538Z,20.3
2022-08-29T10:33:01.136Z,20.3
2022-08-29T10:34:01.712Z,20.2
2022-08-29T10:35:01.284Z,20
2022-08-29T10:36:01.855Z,19.9
2022-08-29T10:37:01.430Z,20.2
2022-08-29T10:38:01.017Z,20.8
2022-08-29T10:39:01.600Z,21.1
2022-08-29T10:40:01.219Z,20.9
2022-08-29T10:41:01.756Z,20.5
2022-08-29T10:42:01.333Z,20.2
2022-08-29T10:43:00.922Z,20.4
2022-08-29T10:44:01.493Z,20.3
2022-08-29T10:45:01.066Z,20.3
2022-08-29T10:46:01.728Z,20.3
2022-08-29T10:47:01.298Z,20.1
2022-08-29T10:48:00.888Z,20.2
2022-08-29T10:49:01.460Z,20.2
2022-08-29T10:50:01.035Z,19.8
2022-08-29T10:51:01.609Z,19.9
2022-08-29T10:52:01.182Z,19.7
2022-08-29T10:53:01.775Z,19.7
2022-08-29T10:54:01.350Z,19.8
2022-08-29T10:55:00.926Z,20.1
2022-08-29T10:56:06.020Z,20
2022-08-29T10:57:01.035Z,20.3
2022-08-29T10:58:01.624Z,20.5
2022-08-29T10:59:01.193Z,20.5
2022-08-29T11:00:01.768Z,20.5
2022-08-29T11:01:04.277Z,20.5
2022-08-29T11:02:00.876Z,20.6
2022-08-29T11:03:01.466Z,20.5
2022-08-29T11:04:01.094Z,20.4
2022-08-29T11:05:01.614Z,20.3
2022-08-29T11:06:01.185Z,20
2022-08-29T11:07:01.757Z,20.1
2022-08-29T11:08:01.345Z,20.3
2022-08-29T11:09:00.916Z,20.4
2022-08-29T11:10:01.504Z,20.6
2022-08-29T11:11:01.546Z,20.9
2022-08-29T11:12:01.256Z,21.1
2022-08-29T11:13:01.829Z,21.4
2022-08-29T11:14:05.537Z,21.5
2022-08-29T11:15:00.969Z,21.6
2022-08-29T11:16:01.617Z,21.7
2022-08-29T11:17:02.986Z,21.8
2022-08-29T11:18:01.737Z,22
2022-08-29T11:19:01.311Z,21.8
2022-08-29T11:20:00.898Z,21.8
2022-08-29T11:21:01.460Z,21.6
2022-08-29T11:22:01.035Z,21.4
2022-08-29T11:23:01.610Z,21.3
2022-08-29T11:24:01.183Z,21.2
2022-08-29T11:25:01.792Z,20.7
2022-08-29T11:26:01.377Z,20.9
2022-08-29T11:27:00.947Z,20.8
2022-08-29T11:28:01.529Z,21.1
2022-08-29T11:29:01.104Z,20.9
2022-08-29T11:30:01.693Z,21
2022-08-29T11:31:01.282Z,21.1
2022-08-29T11:32:01.851Z,21.3
2022-08-29T11:33:01.427Z,21.2
2022-08-29T11:34:00.997Z,21.1
2022-08-29T11:35:01.596Z,21.2
2022-08-29T11:36:04.285Z,21.5
2022-08-29T11:37:01.706Z,21.5
2022-08-29T11:38:01.277Z,21.3
2022-08-29T11:39:01.849Z,21.2
2022-08-29T11:40:01.490Z,21.1
2022-08-29T11:41:30.756Z,21.2
2022-08-29T11:42:01.701Z,21.2
2022-08-29T11:43:01.339Z,21.2
2022-08-29T11:44:00.901Z,21.3
2022-08-29T11:45:01.477Z,21.4
2022-08-29T11:46:01.051Z,21.4
2022-08-29T11:47:01.680Z,21.5
2022-08-29T11:48:01.183Z,21.5
2022-08-29T11:49:01.761Z,21.4
2022-08-29T11:50:01.336Z,21.4
2022-08-29T11:51:00.927Z,21.5
2022-08-29T11:52:01.499Z,21.3
2022-08-29T11:53:01.092Z,21.2
2022-08-29T11:54:01.656Z,21.4
2022-08-29T11:55:01.233Z,21.8
2022-08-29T11:56:01.809Z,22
2022-08-29T11:57:01.600Z,21.5
2022-08-29T11:58:04.351Z,21.3
2022-08-29T11:59:01.603Z,21.4
2022-08-29T12:00:01.179Z,21.5
2022-08-29T12:01:01.753Z,21.4
2022-08-29T12:02:01.368Z,21.5
2022-08-29T12:03:00.928Z,21.6
2022-08-29T12:04:01.494Z,21.7
2022-08-29T12:05:01.085Z,21.4
2022-08-29T12:06:01.663Z,21.5
2022-08-29T12:07:01.523Z,21.4
2022-08-29T12:08:10.092Z,21.6
2022-08-29T12:09:04.599Z,22
2022-08-29T12:10:00.937Z,21.9
2022-08-29T12:11:01.512Z,21.8
2022-08-29T12:12:01.088Z,21.8
2022-08-29T12:13:01.663Z,22
2022-08-29T12:14:01.432Z,21.9
2022-08-29T12:15:01.792Z,21.8
2022-08-29T12:16:01.438Z,21.7
2022-08-29T12:17:01.032Z,22.2
2022-08-29T12:18:03.200Z,22
2022-08-29T12:19:01.163Z,21.9
2022-08-29T12:20:01.821Z,22.1
2022-08-29T12:21:01.416Z,22.2
2022-08-29T12:22:00.986Z,21.9
2022-08-29T12:23:01.578Z,21.8
2022-08-29T12:24:01.160Z,22.1
2022-08-29T12:25:01.759Z,22
2022-08-29T12:26:21.385Z,22.1
2022-08-29T12:27:00.889Z,22.1
2022-08-29T12:28:01.470Z,22.1
2022-08-29T12:29:01.045Z,22.1
2022-08-29T12:30:01.670Z,22.4
2022-08-29T12:31:01.425Z,22.4
2022-08-29T12:32:18.430Z,22.3
2022-08-29T12:33:01.388Z,22.1
2022-08-29T12:34:01.096Z,22
2022-08-29T12:35:01.689Z,22
2022-08-29T12:36:01.327Z,22
2022-08-29T12:37:00.915Z,22
2022-08-29T12:38:03.184Z,22
2022-08-29T12:39:01.013Z,22
2022-08-29T12:40:01.687Z,21.9
2022-08-29T12:41:01.242Z,21.9
2022-08-29T12:42:01.837Z,22.1
2022-08-29T12:43:01.417Z,21.9
2022-08-29T12:44:00.993Z,22.1
2022-08-29T12:45:01.532Z,22
2022-08-29T12:46:01.107Z,22.3
2022-08-29T12:47:01.769Z,22.5
2022-08-29T12:48:01.345Z,22.4
2022-08-29T12:49:00.941Z,22.4
2022-08-29T12:50:01.528Z,22.3
2022-08-29T12:51:01.107Z,22.2
2022-08-29T12:52:01.687Z,22.2
2022-08-29T12:53:01.279Z,22.2
2022-08-29T12:54:01.852Z,22.1
2022-08-29T12:55:01.441Z,22
2022-08-29T12:56:01.015Z,22.1
2022-08-29T12:57:01.589Z,22
2022-08-29T12:58:01.161Z,22.3
2022-08-29T12:59:01.732Z,22.3
2022-08-29T13:00:01.401Z,22.3
2022-08-29T13:01:01.929Z,22.2
2022-08-29T13:02:01.543Z,22.2
2022-08-29T13:03:01.169Z,22.3
2022-08-29T13:04:01.708Z,22.2
2022-08-29T13:05:01.282Z,22.3
2022-08-29T13:06:01.858Z,22.3
2022-08-29T13:07:01.453Z,22.3
2022-08-29T13:08:01.027Z,22.4
2022-08-29T13:09:01.612Z,22.5
2022-08-29T13:10:01.244Z,22.4
2022-08-29T13:11:01.773Z,22.4
2022-08-29T13:12:01.366Z,22.6
2022-08-29T13:13:00.940Z,22.5
2022-08-29T13:14:01.517Z,22.5
2022-08-29T13:15:01.131Z,22.7
2022-08-29T13:16:01.890Z,22.8
2022-08-29T13:17:01.377Z,22.6
2022-08-29T13:18:00.963Z,22.5
2022-08-29T13:19:10.726Z,22.5
2022-08-29T13:20:01.066Z,22.5
2022-08-29T13:21:01.638Z,22.7
2022-08-29T13:22:01.232Z,22.6
2022-08-29T13:23:01.822Z,22.6